sensor_id;sensor_type;location;lat;lon;timestamp;temperature;humidity
18876;DHT22;9570;50.854;13.778;2023-04-03T00:01:23;3.80;99.90
18876;DHT22;9570;50.854;13.778;2023-04-03T00:03:48;3.80;99.90
18876;DHT22;9570;50.854;13.778;2023-04-03T00:06:14;3.70;99.90
18876;DHT22;9570;50.854;13.778;2023-04-03T00:08:39;3.70;99.90
18876;DHT22;9570;50.854;13.778;2023-04-03T00:11:05;3.70;99.90
18876;DHT22;9570;50.854;13.778;2023-04-03T00:13:32;3.60;99.90
18876;DHT22;9570;50.854;13.778;2023-04-03T00:15:58;3.50;99.90
18876;DHT22;9570;50.854;13.778;2023-04-03T00:18:24;3.50;99.90
18876;DHT22;9570;50.854;13.778;2023-04-03T00:20:50;3.40;99.90
18876;DHT22;9570;50.854;13.778;2023-04-03T00:23:15;3.40;99.90
18876;DHT22;9570;50.854;13.778;2023-04-03T00:25:41;3.30;99.90
18876;DHT22;9570;50.854;13.778;2023-04-03T00:28:07;3.20;99.90
18876;DHT22;9570;50.854;13.778;2023-04-03T00:30:33;3.20;99.90
18876;DHT22;9570;50.854;13.778;2023-04-03T00:32:59;3.30;99.90
18876;DHT22;9570;50.854;13.778;2023-04-03T00:35:26;3.20;99.90
18876;DHT22;9570;50.854;13.778;2023-04-03T00:37:52;3.20;99.90
18876;DHT22;9570;50.854;13.778;2023-04-03T00:40:19;3.10;99.90
18876;DHT22;9570;50.854;13.778;2023-04-03T00:42:47;3.10;99.90
18876;DHT22;9570;50.854;13.778;2023-04-03T00:45:30;3.00;99.90
18876;DHT22;9570;50.854;13.778;2023-04-03T00:47:57;3.00;99.90
18876;DHT22;9570;50.854;13.778;2023-04-03T00:50:26;3.10;99.90
18876;DHT22;9570;50.854;13.778;2023-04-03T00:52:51;3.00;99.90
18876;DHT22;9570;50.854;13.778;2023-04-03T00:55:17;3.00;99.90
18876;DHT22;9570;50.854;13.778;2023-04-03T00:57:44;3.10;99.90
18876;DHT22;9570;50.854;13.778;2023-04-03T01:00:14;3.10;99.90
18876;DHT22;9570;50.854;13.778;2023-04-03T01:02:40;3.20;99.90
18876;DHT22;9570;50.854;13.778;2023-04-03T01:05:07;3.30;99.90
18876;DHT22;9570;50.854;13.778;2023-04-03T01:07:33;3.10;99.90
18876;DHT22;9570;50.854;13.778;2023-04-03T01:10:02;3.10;99.90
18876;DHT22;9570;50.854;13.778;2023-04-03T01:12:43;3.10;99.90
18876;DHT22;9570;50.854;13.778;2023-04-03T01:15:12;3.20;99.90
18876;DHT22;9570;50.854;13.778;2023-04-03T01:17:39;3.30;99.90
18876;DHT22;9570;50.854;13.778;2023-04-03T01:25:40;3.30;99.90
18876;DHT22;9570;50.854;13.778;2023-04-03T01:28:07;3.30;99.90
18876;DHT22;9570;50.854;13.778;2023-04-03T01:33:16;3.30;99.90
18876;DHT22;9570;50.854;13.778;2023-04-03T01:35:42;3.30;99.90
18876;DHT22;9570;50.854;13.778;2023-04-03T01:38:07;3.20;99.90
18876;DHT22;9570;50.854;13.778;2023-04-03T01:40:33;3.20;99.90
18876;DHT22;9570;50.854;13.778;2023-04-03T01:42:58;3.20;99.90
18876;DHT22;9570;50.854;13.778;2023-04-03T01:45:24;3.20;99.90
18876;DHT22;9570;50.854;13.778;2023-04-03T01:47:49;3.00;99.90
18876;DHT22;9570;50.854;13.778;2023-04-03T01:50:15;2.80;99.90
18876;DHT22;9570;50.854;13.778;2023-04-03T01:52:40;2.80;99.90
18876;DHT22;9570;50.854;13.778;2023-04-03T01:55:06;2.70;99.90
18876;DHT22;9570;50.854;13.778;2023-04-03T01:57:32;2.70;99.90
18876;DHT22;9570;50.854;13.778;2023-04-03T01:59:57;2.60;99.90
18876;DHT22;9570;50.854;13.778;2023-04-03T02:02:22;2.60;99.90
18876;DHT22;9570;50.854;13.778;2023-04-03T02:04:48;2.60;99.90
18876;DHT22;9570;50.854;13.778;2023-04-03T02:07:13;2.60;99.90
18876;DHT22;9570;50.854;13.778;2023-04-03T02:09:39;2.60;99.90
18876;DHT22;9570;50.854;13.778;2023-04-03T02:12:05;2.60;99.90
18876;DHT22;9570;50.854;13.778;2023-04-03T02:14:30;2.60;99.90
18876;DHT22;9570;50.854;13.778;2023-04-03T02:16:56;2.60;99.90
18876;DHT22;9570;50.854;13.778;2023-04-03T02:19:21;2.60;99.90
18876;DHT22;9570;50.854;13.778;2023-04-03T02:21:47;2.60;99.90
18876;DHT22;9570;50.854;13.778;2023-04-03T02:24:12;2.60;99.90
18876;DHT22;9570;50.854;13.778;2023-04-03T02:26:37;2.60;99.90
18876;DHT22;9570;50.854;13.778;2023-04-03T02:29:03;2.40;99.90
18876;DHT22;9570;50.854;13.778;2023-04-03T02:31:28;2.40;99.90
18876;DHT22;9570;50.854;13.778;2023-04-03T02:33:54;2.40;99.90
18876;DHT22;9570;50.854;13.778;2023-04-03T02:36:19;2.30;99.90
18876;DHT22;9570;50.854;13.778;2023-04-03T02:38:45;2.30;99.90
18876;DHT22;9570;50.854;13.778;2023-04-03T02:41:12;2.30;99.90
18876;DHT22;9570;50.854;13.778;2023-04-03T02:43:38;2.30;99.90
18876;DHT22;9570;50.854;13.778;2023-04-03T02:46:04;2.20;99.90
18876;DHT22;9570;50.854;13.778;2023-04-03T02:48:30;2.10;99.90
18876;DHT22;9570;50.854;13.778;2023-04-03T02:50:55;2.10;99.90
18876;DHT22;9570;50.854;13.778;2023-04-03T02:53:21;2.10;99.90
18876;DHT22;9570;50.854;13.778;2023-04-03T02:55:47;2.00;99.90
18876;DHT22;9570;50.854;13.778;2023-04-03T02:58:12;1.90;99.90
18876;DHT22;9570;50.854;13.778;2023-04-03T03:00:38;1.90;99.90
18876;DHT22;9570;50.854;13.778;2023-04-03T03:03:03;1.90;99.90
18876;DHT22;9570;50.854;13.778;2023-04-03T03:05:29;1.90;99.90
18876;DHT22;9570;50.854;13.778;2023-04-03T03:07:55;1.80;99.90
18876;DHT22;9570;50.854;13.778;2023-04-03T03:10:21;1.70;99.90
18876;DHT22;9570;50.854;13.778;2023-04-03T03:12:46;1.80;99.90
18876;DHT22;9570;50.854;13.778;2023-04-03T03:15:12;1.60;99.90
18876;DHT22;9570;50.854;13.778;2023-04-03T03:17:37;1.80;99.90
18876;DHT22;9570;50.854;13.778;2023-04-03T03:20:04;1.80;99.90
18876;DHT22;9570;50.854;13.778;2023-04-03T03:22:30;1.60;99.90
18876;DHT22;9570;50.854;13.778;2023-04-03T03:24:55;1.50;99.90
18876;DHT22;9570;50.854;13.778;2023-04-03T03:27:21;1.30;99.90
18876;DHT22;9570;50.854;13.778;2023-04-03T03:29:46;1.30;99.90
18876;DHT22;9570;50.854;13.778;2023-04-03T03:32:12;1.30;99.90
18876;DHT22;9570;50.854;13.778;2023-04-03T03:34:37;1.20;99.90
18876;DHT22;9570;50.854;13.778;2023-04-03T03:37:03;1.20;99.90
18876;DHT22;9570;50.854;13.778;2023-04-03T03:39:29;1.30;99.90
18876;DHT22;9570;50.854;13.778;2023-04-03T03:41:54;1.30;99.90
18876;DHT22;9570;50.854;13.778;2023-04-03T03:44:20;1.30;99.90
18876;DHT22;9570;50.854;13.778;2023-04-03T03:46:46;1.30;99.90
18876;DHT22;9570;50.854;13.778;2023-04-03T03:49:11;1.10;99.90
18876;DHT22;9570;50.854;13.778;2023-04-03T03:51:38;1.00;99.90
18876;DHT22;9570;50.854;13.778;2023-04-03T03:54:04;0.80;99.90
18876;DHT22;9570;50.854;13.778;2023-04-03T03:56:30;0.90;99.90
18876;DHT22;9570;50.854;13.778;2023-04-03T03:58:55;0.80;99.90
18876;DHT22;9570;50.854;13.778;2023-04-03T04:01:22;1.00;99.90
18876;DHT22;9570;50.854;13.778;2023-04-03T04:03:48;0.90;99.90
18876;DHT22;9570;50.854;13.778;2023-04-03T04:06:13;0.80;99.90
18876;DHT22;9570;50.854;13.778;2023-04-03T04:08:39;0.90;99.90
18876;DHT22;9570;50.854;13.778;2023-04-03T04:11:05;0.80;99.90
18876;DHT22;9570;50.854;13.778;2023-04-03T04:13:30;0.70;99.90
18876;DHT22;9570;50.854;13.778;2023-04-03T04:15:56;0.70;99.90
18876;DHT22;9570;50.854;13.778;2023-04-03T04:18:21;0.70;99.90
18876;DHT22;9570;50.854;13.778;2023-04-03T04:20:48;0.60;99.90
18876;DHT22;9570;50.854;13.778;2023-04-03T04:23:13;0.70;99.90
18876;DHT22;9570;50.854;13.778;2023-04-03T04:25:39;0.70;99.90
18876;DHT22;9570;50.854;13.778;2023-04-03T04:28:05;0.70;99.90
18876;DHT22;9570;50.854;13.778;2023-04-03T04:30:30;0.70;99.90
18876;DHT22;9570;50.854;13.778;2023-04-03T04:32:56;0.80;99.90
18876;DHT22;9570;50.854;13.778;2023-04-03T04:35:21;0.90;99.90
18876;DHT22;9570;50.854;13.778;2023-04-03T04:37:46;0.90;99.90
18876;DHT22;9570;50.854;13.778;2023-04-03T04:40:12;0.80;99.90
18876;DHT22;9570;50.854;13.778;2023-04-03T04:42:37;0.90;99.90
18876;DHT22;9570;50.854;13.778;2023-04-03T04:45:03;1.20;99.90
18876;DHT22;9570;50.854;13.778;2023-04-03T04:47:29;0.90;99.90
18876;DHT22;9570;50.854;13.778;2023-04-03T04:49:55;0.70;99.90
18876;DHT22;9570;50.854;13.778;2023-04-03T04:52:20;0.90;99.90
18876;DHT22;9570;50.854;13.778;2023-04-03T04:54:46;0.90;99.90
18876;DHT22;9570;50.854;13.778;2023-04-03T04:57:11;1.00;99.90
18876;DHT22;9570;50.854;13.778;2023-04-03T04:59:37;0.80;99.90
18876;DHT22;9570;50.854;13.778;2023-04-03T05:02:02;0.90;99.90
18876;DHT22;9570;50.854;13.778;2023-04-03T05:04:28;0.90;99.90
18876;DHT22;9570;50.854;13.778;2023-04-03T05:06:53;0.80;99.90
18876;DHT22;9570;50.854;13.778;2023-04-03T05:09:19;0.70;99.90
18876;DHT22;9570;50.854;13.778;2023-04-03T05:11:45;0.50;99.90
18876;DHT22;9570;50.854;13.778;2023-04-03T05:14:11;0.50;99.90
18876;DHT22;9570;50.854;13.778;2023-04-03T05:16:37;0.40;99.90
18876;DHT22;9570;50.854;13.778;2023-04-03T05:19:03;0.50;99.90
18876;DHT22;9570;50.854;13.778;2023-04-03T05:21:28;0.60;99.90
18876;DHT22;9570;50.854;13.778;2023-04-03T05:23:58;0.60;99.90
18876;DHT22;9570;50.854;13.778;2023-04-03T05:26:24;0.60;99.90
18876;DHT22;9570;50.854;13.778;2023-04-03T05:28:51;0.80;99.90
18876;DHT22;9570;50.854;13.778;2023-04-03T05:31:16;0.80;99.90
18876;DHT22;9570;50.854;13.778;2023-04-03T05:33:42;0.70;99.90
18876;DHT22;9570;50.854;13.778;2023-04-03T05:36:08;0.60;99.90
18876;DHT22;9570;50.854;13.778;2023-04-03T05:38:33;0.80;99.90
18876;DHT22;9570;50.854;13.778;2023-04-03T05:40:59;0.70;99.90
18876;DHT22;9570;50.854;13.778;2023-04-03T05:43:24;0.90;99.90
18876;DHT22;9570;50.854;13.778;2023-04-03T05:45:51;0.80;99.90
18876;DHT22;9570;50.854;13.778;2023-04-03T05:48:16;0.90;99.90
18876;DHT22;9570;50.854;13.778;2023-04-03T05:50:42;0.80;99.90
18876;DHT22;9570;50.854;13.778;2023-04-03T05:53:17;0.70;99.90
18876;DHT22;9570;50.854;13.778;2023-04-03T05:55:44;0.60;99.90
18876;DHT22;9570;50.854;13.778;2023-04-03T05:58:10;0.60;99.90
18876;DHT22;9570;50.854;13.778;2023-04-03T06:00:35;0.60;99.90
18876;DHT22;9570;50.854;13.778;2023-04-03T06:03:01;0.80;99.90
18876;DHT22;9570;50.854;13.778;2023-04-03T06:05:26;0.70;99.90
18876;DHT22;9570;50.854;13.778;2023-04-03T06:07:52;0.80;99.90
18876;DHT22;9570;50.854;13.778;2023-04-03T06:10:17;0.60;99.90
18876;DHT22;9570;50.854;13.778;2023-04-03T06:12:43;0.50;99.90
18876;DHT22;9570;50.854;13.778;2023-04-03T06:15:09;0.50;99.90
18876;DHT22;9570;50.854;13.778;2023-04-03T06:17:36;0.50;99.90
18876;DHT22;9570;50.854;13.778;2023-04-03T06:20:03;0.50;99.90
18876;DHT22;9570;50.854;13.778;2023-04-03T06:22:29;0.50;99.90
18876;DHT22;9570;50.854;13.778;2023-04-03T06:24:56;0.70;99.90
18876;DHT22;9570;50.854;13.778;2023-04-03T06:27:21;0.90;99.90
18876;DHT22;9570;50.854;13.778;2023-04-03T06:29:47;0.90;99.90
18876;DHT22;9570;50.854;13.778;2023-04-03T06:32:14;0.60;99.90
18876;DHT22;9570;50.854;13.778;2023-04-03T06:34:39;0.50;99.90
18876;DHT22;9570;50.854;13.778;2023-04-03T06:37:05;0.70;99.90
18876;DHT22;9570;50.854;13.778;2023-04-03T06:39:31;0.60;99.90
18876;DHT22;9570;50.854;13.778;2023-04-03T06:41:57;0.70;99.90
18876;DHT22;9570;50.854;13.778;2023-04-03T06:44:23;0.50;99.90
18876;DHT22;9570;50.854;13.778;2023-04-03T06:46:48;0.60;99.90
18876;DHT22;9570;50.854;13.778;2023-04-03T06:49:14;0.60;99.90
18876;DHT22;9570;50.854;13.778;2023-04-03T06:51:40;0.70;99.90
18876;DHT22;9570;50.854;13.778;2023-04-03T06:54:06;0.70;99.90
18876;DHT22;9570;50.854;13.778;2023-04-03T06:56:32;0.80;99.90
18876;DHT22;9570;50.854;13.778;2023-04-03T06:58:57;0.90;99.90
18876;DHT22;9570;50.854;13.778;2023-04-03T07:01:25;1.00;99.90
18876;DHT22;9570;50.854;13.778;2023-04-03T07:03:51;1.10;99.90
18876;DHT22;9570;50.854;13.778;2023-04-03T07:06:17;1.20;99.90
18876;DHT22;9570;50.854;13.778;2023-04-03T07:08:43;1.00;99.90
18876;DHT22;9570;50.854;13.778;2023-04-03T07:11:10;1.20;99.90
18876;DHT22;9570;50.854;13.778;2023-04-03T07:13:36;1.30;99.90
18876;DHT22;9570;50.854;13.778;2023-04-03T07:16:02;1.20;99.90
18876;DHT22;9570;50.854;13.778;2023-04-03T07:18:30;1.30;99.90
18876;DHT22;9570;50.854;13.778;2023-04-03T07:20:56;1.30;99.90
18876;DHT22;9570;50.854;13.778;2023-04-03T07:23:21;1.30;99.90
18876;DHT22;9570;50.854;13.778;2023-04-03T07:25:48;1.30;99.90
18876;DHT22;9570;50.854;13.778;2023-04-03T07:28:15;1.40;99.90
18876;DHT22;9570;50.854;13.778;2023-04-03T07:30:51;1.40;99.90
18876;DHT22;9570;50.854;13.778;2023-04-03T07:33:19;1.40;99.90
18876;DHT22;9570;50.854;13.778;2023-04-03T07:35:45;1.60;99.90
18876;DHT22;9570;50.854;13.778;2023-04-03T07:38:11;1.50;99.90
18876;DHT22;9570;50.854;13.778;2023-04-03T07:40:37;1.20;99.90
18876;DHT22;9570;50.854;13.778;2023-04-03T07:43:04;1.10;99.90
18876;DHT22;9570;50.854;13.778;2023-04-03T07:45:30;1.10;99.90
18876;DHT22;9570;50.854;13.778;2023-04-03T07:47:56;1.20;99.90
18876;DHT22;9570;50.854;13.778;2023-04-03T07:50:21;1.10;99.90
18876;DHT22;9570;50.854;13.778;2023-04-03T07:52:48;1.20;99.90
18876;DHT22;9570;50.854;13.778;2023-04-03T07:55:14;1.20;99.90
18876;DHT22;9570;50.854;13.778;2023-04-03T07:57:39;1.10;99.90
18876;DHT22;9570;50.854;13.778;2023-04-03T08:00:06;1.00;99.90
18876;DHT22;9570;50.854;13.778;2023-04-03T08:02:32;1.20;99.90
18876;DHT22;9570;50.854;13.778;2023-04-03T08:04:58;1.30;99.90
18876;DHT22;9570;50.854;13.778;2023-04-03T08:07:24;1.30;99.90
18876;DHT22;9570;50.854;13.778;2023-04-03T08:09:50;1.50;99.90
18876;DHT22;9570;50.854;13.778;2023-04-03T08:12:16;1.50;99.90
18876;DHT22;9570;50.854;13.778;2023-04-03T08:14:42;1.50;99.90
18876;DHT22;9570;50.854;13.778;2023-04-03T08:17:08;1.60;99.90
18876;DHT22;9570;50.854;13.778;2023-04-03T08:19:37;1.30;99.90
18876;DHT22;9570;50.854;13.778;2023-04-03T08:22:03;1.30;99.90
18876;DHT22;9570;50.854;13.778;2023-04-03T08:24:29;1.40;99.90
18876;DHT22;9570;50.854;13.778;2023-04-03T08:26:54;1.60;99.90
18876;DHT22;9570;50.854;13.778;2023-04-03T08:29:21;1.50;99.90
18876;DHT22;9570;50.854;13.778;2023-04-03T08:31:47;1.40;99.90
18876;DHT22;9570;50.854;13.778;2023-04-03T08:34:12;1.50;99.90
18876;DHT22;9570;50.854;13.778;2023-04-03T08:36:38;1.60;99.90
18876;DHT22;9570;50.854;13.778;2023-04-03T08:39:03;1.40;99.90
18876;DHT22;9570;50.854;13.778;2023-04-03T08:41:34;1.40;99.90
18876;DHT22;9570;50.854;13.778;2023-04-03T08:49:40;1.90;99.90
18876;DHT22;9570;50.854;13.778;2023-04-03T08:52:14;2.10;99.90
18876;DHT22;9570;50.854;13.778;2023-04-03T08:54:55;2.30;99.90
18876;DHT22;9570;50.854;13.778;2023-04-03T08:57:31;1.90;99.90
18876;DHT22;9570;50.854;13.778;2023-04-03T09:02:52;1.70;99.90
18876;DHT22;9570;50.854;13.778;2023-04-03T09:05:32;1.70;99.90
18876;DHT22;9570;50.854;13.778;2023-04-03T09:08:14;1.90;99.90
18876;DHT22;9570;50.854;13.778;2023-04-03T09:10:43;1.90;99.90
18876;DHT22;9570;50.854;13.778;2023-04-03T09:13:26;2.00;99.90
18876;DHT22;9570;50.854;13.778;2023-04-03T09:15:56;2.20;99.90
18876;DHT22;9570;50.854;13.778;2023-04-03T09:18:30;2.20;99.90
18876;DHT22;9570;50.854;13.778;2023-04-03T09:21:08;2.60;99.90
18876;DHT22;9570;50.854;13.778;2023-04-03T09:23:58;2.70;99.90
18876;DHT22;9570;50.854;13.778;2023-04-03T09:26:30;2.60;99.90
18876;DHT22;9570;50.854;13.778;2023-04-03T09:29:01;2.60;99.90
18876;DHT22;9570;50.854;13.778;2023-04-03T09:31:31;2.90;99.90
18876;DHT22;9570;50.854;13.778;2023-04-03T09:34:04;3.00;99.90
18876;DHT22;9570;50.854;13.778;2023-04-03T09:36:52;3.10;99.90
18876;DHT22;9570;50.854;13.778;2023-04-03T09:39:21;2.90;99.90
18876;DHT22;9570;50.854;13.778;2023-04-03T09:42:11;2.60;99.90
18876;DHT22;9570;50.854;13.778;2023-04-03T09:44:40;2.50;99.90
18876;DHT22;9570;50.854;13.778;2023-04-03T09:47:18;2.30;99.90
18876;DHT22;9570;50.854;13.778;2023-04-03T09:49:44;2.40;99.90
18876;DHT22;9570;50.854;13.778;2023-04-03T09:52:24;2.60;99.90
18876;DHT22;9570;50.854;13.778;2023-04-03T09:54:50;2.70;99.90
18876;DHT22;9570;50.854;13.778;2023-04-03T09:57:16;2.80;99.90
18876;DHT22;9570;50.854;13.778;2023-04-03T09:59:46;2.80;99.90
18876;DHT22;9570;50.854;13.778;2023-04-03T10:02:25;2.50;99.90
18876;DHT22;9570;50.854;13.778;2023-04-03T10:04:53;2.30;99.90
18876;DHT22;9570;50.854;13.778;2023-04-03T10:07:36;2.40;99.90
18876;DHT22;9570;50.854;13.778;2023-04-03T10:10:18;2.50;99.90
18876;DHT22;9570;50.854;13.778;2023-04-03T10:12:45;2.70;99.90
18876;DHT22;9570;50.854;13.778;2023-04-03T10:15:15;2.90;99.90
18876;DHT22;9570;50.854;13.778;2023-04-03T10:18:13;3.20;99.90
18876;DHT22;9570;50.854;13.778;2023-04-03T10:20:46;3.40;99.90
18876;DHT22;9570;50.854;13.778;2023-04-03T10:23:18;3.60;99.90
18876;DHT22;9570;50.854;13.778;2023-04-03T10:28:44;3.50;99.90
18876;DHT22;9570;50.854;13.778;2023-04-03T10:31:16;3.40;99.90
18876;DHT22;9570;50.854;13.778;2023-04-03T10:33:50;3.30;99.90
18876;DHT22;9570;50.854;13.778;2023-04-03T10:36:34;3.20;99.90
18876;DHT22;9570;50.854;13.778;2023-04-03T10:39:12;3.30;99.90
18876;DHT22;9570;50.854;13.778;2023-04-03T10:41:56;3.10;99.90
18876;DHT22;9570;50.854;13.778;2023-04-03T10:47:40;3.00;99.90
18876;DHT22;9570;50.854;13.778;2023-04-03T10:50:27;3.10;99.90
18876;DHT22;9570;50.854;13.778;2023-04-03T10:56:15;3.40;99.90
18876;DHT22;9570;50.854;13.778;2023-04-03T10:58:52;3.60;99.90
18876;DHT22;9570;50.854;13.778;2023-04-03T11:01:22;3.50;99.90
18876;DHT22;9570;50.854;13.778;2023-04-03T11:03:56;3.20;99.90
18876;DHT22;9570;50.854;13.778;2023-04-03T11:06:25;3.30;99.90
18876;DHT22;9570;50.854;13.778;2023-04-03T11:09:00;3.60;99.90
18876;DHT22;9570;50.854;13.778;2023-04-03T11:11:32;3.90;99.90
18876;DHT22;9570;50.854;13.778;2023-04-03T11:14:16;3.90;99.90
18876;DHT22;9570;50.854;13.778;2023-04-03T11:16:47;3.90;99.90
18876;DHT22;9570;50.854;13.778;2023-04-03T11:19:24;3.90;99.90
18876;DHT22;9570;50.854;13.778;2023-04-03T11:24:38;3.70;99.90
18876;DHT22;9570;50.854;13.778;2023-04-03T11:27:05;3.60;99.90
18876;DHT22;9570;50.854;13.778;2023-04-03T11:29:39;3.70;99.90
18876;DHT22;9570;50.854;13.778;2023-04-03T11:32:21;3.80;99.90
18876;DHT22;9570;50.854;13.778;2023-04-03T11:34:54;3.80;99.90
18876;DHT22;9570;50.854;13.778;2023-04-03T11:37:31;4.20;99.90
18876;DHT22;9570;50.854;13.778;2023-04-03T11:40:01;3.90;99.90
18876;DHT22;9570;50.854;13.778;2023-04-03T11:42:36;3.90;99.90
18876;DHT22;9570;50.854;13.778;2023-04-03T11:45:24;4.20;99.90
18876;DHT22;9570;50.854;13.778;2023-04-03T11:48:42;4.30;99.90
18876;DHT22;9570;50.854;13.778;2023-04-03T11:50:52;4.30;99.90
18876;DHT22;9570;50.854;13.778;2023-04-03T11:55:55;4.10;99.90
18876;DHT22;9570;50.854;13.778;2023-04-03T11:58:23;4.30;99.90
18876;DHT22;9570;50.854;13.778;2023-04-03T12:16:07;4.50;99.90
18876;DHT22;9570;50.854;13.778;2023-04-03T12:40:31;4.70;99.90
18876;DHT22;9570;50.854;13.778;2023-04-03T12:43:22;4.80;99.90
18876;DHT22;9570;50.854;13.778;2023-04-03T12:46:04;4.70;99.90
18876;DHT22;9570;50.854;13.778;2023-04-03T12:48:31;4.70;99.90
18876;DHT22;9570;50.854;13.778;2023-04-03T12:50:59;4.80;99.90
18876;DHT22;9570;50.854;13.778;2023-04-03T12:53:27;4.90;99.90
18876;DHT22;9570;50.854;13.778;2023-04-03T12:55:56;4.60;99.90
18876;DHT22;9570;50.854;13.778;2023-04-03T12:58:24;4.40;99.90
18876;DHT22;9570;50.854;13.778;2023-04-03T13:01:09;4.50;99.90
18876;DHT22;9570;50.854;13.778;2023-04-03T13:03:39;4.80;99.90
18876;DHT22;9570;50.854;13.778;2023-04-03T13:06:06;5.00;99.90
18876;DHT22;9570;50.854;13.778;2023-04-03T13:08:32;4.80;99.90
18876;DHT22;9570;50.854;13.778;2023-04-03T13:11:09;4.60;99.90
18876;DHT22;9570;50.854;13.778;2023-04-03T13:13:36;4.60;99.90
18876;DHT22;9570;50.854;13.778;2023-04-03T13:16:10;4.60;99.90
18876;DHT22;9570;50.854;13.778;2023-04-03T13:18:37;4.60;99.90
18876;DHT22;9570;50.854;13.778;2023-04-03T13:21:10;4.50;99.90
18876;DHT22;9570;50.854;13.778;2023-04-03T13:23:40;4.50;99.90
18876;DHT22;9570;50.854;13.778;2023-04-03T13:26:07;4.60;99.90
18876;DHT22;9570;50.854;13.778;2023-04-03T13:28:34;4.70;99.90
18876;DHT22;9570;50.854;13.778;2023-04-03T13:33:30;4.60;99.90
18876;DHT22;9570;50.854;13.778;2023-04-03T13:36:05;4.80;99.90
18876;DHT22;9570;50.854;13.778;2023-04-03T13:38:32;4.70;99.90
18876;DHT22;9570;50.854;13.778;2023-04-03T13:41:03;4.60;99.90
18876;DHT22;9570;50.854;13.778;2023-04-03T13:43:35;4.50;99.90
18876;DHT22;9570;50.854;13.778;2023-04-03T13:48:47;4.30;99.90
18876;DHT22;9570;50.854;13.778;2023-04-03T13:54:30;4.30;99.90
18876;DHT22;9570;50.854;13.778;2023-04-03T13:56:37;4.30;99.90
18876;DHT22;9570;50.854;13.778;2023-04-03T14:01:44;4.60;99.90
18876;DHT22;9570;50.854;13.778;2023-04-03T14:04:23;4.70;99.90
18876;DHT22;9570;50.854;13.778;2023-04-03T14:06:49;4.60;99.90
18876;DHT22;9570;50.854;13.778;2023-04-03T14:09:16;4.30;99.90
18876;DHT22;9570;50.854;13.778;2023-04-03T14:11:42;4.20;99.90
18876;DHT22;9570;50.854;13.778;2023-04-03T14:14:22;4.10;99.90
18876;DHT22;9570;50.854;13.778;2023-04-03T14:16:52;4.00;99.90
18876;DHT22;9570;50.854;13.778;2023-04-03T14:19:25;4.10;99.90
18876;DHT22;9570;50.854;13.778;2023-04-03T14:21:51;4.10;99.90
18876;DHT22;9570;50.854;13.778;2023-04-03T14:24:18;4.10;99.90
18876;DHT22;9570;50.854;13.778;2023-04-03T14:26:45;4.20;99.90
18876;DHT22;9570;50.854;13.778;2023-04-03T14:31:39;4.40;99.90
18876;DHT22;9570;50.854;13.778;2023-04-03T14:34:05;4.30;99.90
18876;DHT22;9570;50.854;13.778;2023-04-03T14:36:31;4.20;99.90
18876;DHT22;9570;50.854;13.778;2023-04-03T14:38:57;4.10;99.90
18876;DHT22;9570;50.854;13.778;2023-04-03T14:41:24;4.10;99.90
18876;DHT22;9570;50.854;13.778;2023-04-03T14:43:51;4.00;99.90
18876;DHT22;9570;50.854;13.778;2023-04-03T14:46:28;4.00;99.90
18876;DHT22;9570;50.854;13.778;2023-04-03T14:48:54;4.10;99.90
18876;DHT22;9570;50.854;13.778;2023-04-03T14:51:20;4.40;99.90
18876;DHT22;9570;50.854;13.778;2023-04-03T14:53:45;4.60;99.90
18876;DHT22;9570;50.854;13.778;2023-04-03T14:56:14;4.70;99.90
18876;DHT22;9570;50.854;13.778;2023-04-03T14:58:40;4.60;99.90
18876;DHT22;9570;50.854;13.778;2023-04-03T15:01:06;4.60;99.90
18876;DHT22;9570;50.854;13.778;2023-04-03T15:03:31;4.50;99.90
18876;DHT22;9570;50.854;13.778;2023-04-03T15:05:57;4.20;99.90
18876;DHT22;9570;50.854;13.778;2023-04-03T15:08:26;4.00;99.90
18876;DHT22;9570;50.854;13.778;2023-04-03T15:10:54;3.90;99.90
18876;DHT22;9570;50.854;13.778;2023-04-03T15:13:22;4.00;99.90
18876;DHT22;9570;50.854;13.778;2023-04-03T15:15:48;4.00;99.90
18876;DHT22;9570;50.854;13.778;2023-04-03T15:18:21;3.90;99.90
18876;DHT22;9570;50.854;13.778;2023-04-03T15:20:47;3.80;99.90
18876;DHT22;9570;50.854;13.778;2023-04-03T15:23:14;3.60;99.90
18876;DHT22;9570;50.854;13.778;2023-04-03T15:25:42;3.60;99.90
18876;DHT22;9570;50.854;13.778;2023-04-03T15:28:13;3.70;99.90
18876;DHT22;9570;50.854;13.778;2023-04-03T15:30:41;3.70;99.90
18876;DHT22;9570;50.854;13.778;2023-04-03T15:33:08;3.90;99.90
18876;DHT22;9570;50.854;13.778;2023-04-03T15:35:33;4.00;99.90
18876;DHT22;9570;50.854;13.778;2023-04-03T15:37:59;4.10;99.90
18876;DHT22;9570;50.854;13.778;2023-04-03T15:40:24;4.10;99.90
18876;DHT22;9570;50.854;13.778;2023-04-03T15:42:50;4.30;99.90
18876;DHT22;9570;50.854;13.778;2023-04-03T15:45:16;4.20;99.90
18876;DHT22;9570;50.854;13.778;2023-04-03T15:47:41;4.20;99.90
18876;DHT22;9570;50.854;13.778;2023-04-03T15:50:07;4.00;99.90
18876;DHT22;9570;50.854;13.778;2023-04-03T15:52:34;3.90;99.90
18876;DHT22;9570;50.854;13.778;2023-04-03T15:54:59;3.80;99.90
18876;DHT22;9570;50.854;13.778;2023-04-03T15:57:25;3.70;99.90
18876;DHT22;9570;50.854;13.778;2023-04-03T15:59:52;3.70;99.90
18876;DHT22;9570;50.854;13.778;2023-04-03T16:02:17;3.50;99.90
18876;DHT22;9570;50.854;13.778;2023-04-03T16:04:43;3.30;99.90
18876;DHT22;9570;50.854;13.778;2023-04-03T16:07:08;3.30;99.90
18876;DHT22;9570;50.854;13.778;2023-04-03T16:09:34;3.40;99.90
18876;DHT22;9570;50.854;13.778;2023-04-03T16:12:00;3.30;99.90
18876;DHT22;9570;50.854;13.778;2023-04-03T16:14:27;3.40;99.90
18876;DHT22;9570;50.854;13.778;2023-04-03T16:16:53;3.60;99.90
18876;DHT22;9570;50.854;13.778;2023-04-03T16:19:19;3.50;99.90
18876;DHT22;9570;50.854;13.778;2023-04-03T16:21:45;3.60;99.90
18876;DHT22;9570;50.854;13.778;2023-04-03T16:24:11;3.60;99.90
18876;DHT22;9570;50.854;13.778;2023-04-03T16:26:37;3.50;99.90
18876;DHT22;9570;50.854;13.778;2023-04-03T16:29:02;3.80;99.90
18876;DHT22;9570;50.854;13.778;2023-04-03T16:31:28;3.60;99.90
18876;DHT22;9570;50.854;13.778;2023-04-03T16:33:55;3.70;99.90
18876;DHT22;9570;50.854;13.778;2023-04-03T16:36:21;3.80;99.90
18876;DHT22;9570;50.854;13.778;2023-04-03T16:38:47;3.90;99.90
18876;DHT22;9570;50.854;13.778;2023-04-03T16:41:12;3.70;99.90
18876;DHT22;9570;50.854;13.778;2023-04-03T16:43:38;3.70;99.90
18876;DHT22;9570;50.854;13.778;2023-04-03T16:46:03;3.50;99.90
18876;DHT22;9570;50.854;13.778;2023-04-03T16:48:30;3.50;99.90
18876;DHT22;9570;50.854;13.778;2023-04-03T16:50:55;3.50;99.90
18876;DHT22;9570;50.854;13.778;2023-04-03T16:53:22;3.40;99.90
18876;DHT22;9570;50.854;13.778;2023-04-03T16:55:48;3.20;99.90
18876;DHT22;9570;50.854;13.778;2023-04-03T16:58:13;3.30;99.90
18876;DHT22;9570;50.854;13.778;2023-04-03T17:00:40;3.40;99.90
18876;DHT22;9570;50.854;13.778;2023-04-03T17:03:05;3.40;99.90
18876;DHT22;9570;50.854;13.778;2023-04-03T17:05:31;3.60;99.90
18876;DHT22;9570;50.854;13.778;2023-04-03T17:07:56;3.70;99.90
18876;DHT22;9570;50.854;13.778;2023-04-03T17:10:23;3.50;99.90
18876;DHT22;9570;50.854;13.778;2023-04-03T17:12:48;3.50;99.90